Ever Unicorn — 9V7963 — position and weather

sailwx.info

Track history (hours):
 
Tides and Currents Weather Stations Pressure Air Temp Water Temp Dewpoint Dewpoint Depression Visibility Wind Speed Wind Dir Waves Ship Positions

Ever Unicorn

Last reported at 2015-Jan-26 00:26 UTC. Time now 2015-Jan-27 05:52 UTC.
Position N 31°24' E 032°19'.

Length 285 m; draft 9.6 m.

Type: Ship (hazmat cat D). MMSI: 564995000.

Date/timePositionNaut miles runAvg speedWind from/ knotsBaromVisibWave heightAir tempDewpointWater temp
2015-Jan-26 00:26N 31°24' E 032°19'1 1.7
2015-Jan-25 23:33N 31°26' E 032°18'1211.8
2015-Jan-25 22:33N 31°35' E 032°09'1413.8
2015-Jan-25 21:33N 31°44' E 031°57'11611.1
2015-Jan-25 11:05N 31°11' E 029°48'2 0.3
2015-Jan-25 04:08N 31°09' E 029°48'0 0.0
2015-Jan-23 18:20N 31°09' E 029°48'0 0.0
2015-Jan-23 17:32N 31°09' E 029°48'0 0.0
2015-Jan-23 16:17N 31°09' E 029°48'0 0.0
2015-Jan-23 15:32N 31°09' E 029°48'0 0.0
2015-Jan-23 14:15N 31°09' E 029°48'0 0.0
2015-Jan-23 13:15N 31°09' E 029°48'5 1.0
2015-Jan-23 08:08N 31°13' E 029°45'0 0.0
2015-Jan-23 07:32N 31°13' E 029°45'0 0.2
2015-Jan-23 06:33N 31°13' E 029°45'2 2.2
2015-Jan-23 05:34N 31°12' E 029°48'10 4.0
2015-Jan-23 03:06N 31°20' E 029°41'1013.3
2015-Jan-23 02:22N 31°28' E 029°34'2513.7
2015-Jan-23 00:33N 31°49' E 029°19'1913.2
2015-Jan-22 23:06N 32°05' E 029°07'813.5
2015-Jan-22 22:33N 32°12' E 029°02'1413.9
2015-Jan-22 21:33N 32°24' E 028°54'1413.4
2015-Jan-22 20:31N 32°35' E 028°45'8113.4
2015-Jan-22 14:28N 33°44' E 027°53'1213.1
2015-Jan-22 13:33N 33°54' E 027°45'1313.1
2015-Jan-22 12:33N 34°05' E 027°37'1313.1
2015-Jan-22 11:33N 34°16' E 027°28'1313.4
2015-Jan-22 10:33N 34°27' E 027°19'1413.5
2015-Jan-22 09:33N 34°39' E 027°11'10 9.9
2015-Jan-22 08:32N 34°47' E 027°04'1313.3
2015-Jan-22 07:33N 34°58' E 026°56'1312.7
2015-Jan-22 06:33N 35°09' E 026°47'1312.6
2015-Jan-22 05:33N 35°20' E 026°39'1312.9
2015-Jan-22 04:33N 35°27' E 026°26'1413.1
2015-Jan-22 03:28N 35°35' E 026°11'1313.3
2015-Jan-22 02:30N 35°42' E 025°58'1313.4
2015-Jan-22 01:33N 35°49' E 025°45'1313.4
2015-Jan-22 00:33N 35°56' E 025°31'1413.6
2015-Jan-21 23:33N 36°03' E 025°16'913.3
2015-Jan-21 22:50N 36°08' E 025°06'112.8
2015-Jan-21 22:46N 36°08' E 025°05'313.3
2015-Jan-21 22:33N 36°10' E 025°02'1413.5
2015-Jan-21 21:33N 36°17' E 024°48'1413.4
2015-Jan-21 20:30N 36°24' E 024°33'6312.8
2015-Jan-21 15:33N 37°19' E 023°52'1313.5
2015-Jan-21 14:33N 37°31' E 023°46'1313.5
2015-Jan-21 13:34N 37°44' E 023°40'1312.8
2015-Jan-21 12:33N 37°56' E 023°36'1 1.3
2015-Jan-21 11:32N 37°57' E 023°35'0 0.0
2015-Jan-21 10:32N 37°57' E 023°35'0 0.0
2015-Jan-21 09:32N 37°57' E 023°35'0 0.0
2015-Jan-21 08:32N 37°57' E 023°35'0 0.0
2015-Jan-21 07:32N 37°57' E 023°35'0 0.0
2015-Jan-21 06:32N 37°57' E 023°35'0 0.0
2015-Jan-21 05:32N 37°57' E 023°35'0 0.0
2015-Jan-21 04:32N 37°57' E 023°35'0 0.0
2015-Jan-21 03:32N 37°57' E 023°35'0 0.0
2015-Jan-21 02:32N 37°57' E 023°35'0 0.0
2015-Jan-21 01:32N 37°57' E 023°35'0 0.0
2015-Jan-21 00:32N 37°57' E 023°35'0 0.0
2015-Jan-20 23:32N 37°57' E 023°35'0 0.0
2015-Jan-20 22:32N 37°57' E 023°35'0 0.0
2015-Jan-20 21:32N 37°57' E 023°35'0 0.0
2015-Jan-20 20:32N 37°57' E 023°35'0 0.0
2015-Jan-20 19:32N 37°57' E 023°35'0 0.0
2015-Jan-20 18:32N 37°57' E 023°35'0 0.0
2015-Jan-20 17:32N 37°57' E 023°35'0 0.0
2015-Jan-20 16:32N 37°57' E 023°35'0 0.0
2015-Jan-20 15:33N 37°57' E 023°35'0 0.0
2015-Jan-20 14:33N 37°57' E 023°35'0 0.0
2015-Jan-20 13:33N 37°57' E 023°35'0 0.0
2015-Jan-20 12:33N 37°57' E 023°35'0 0.0
2015-Jan-20 11:33N 37°57' E 023°35'0 0.0
2015-Jan-20 10:33N 37°57' E 023°35'0 0.0
2015-Jan-20 09:33N 37°57' E 023°35'0 0.0
2015-Jan-20 08:33N 37°57' E 023°35'0 0.0
2015-Jan-20 07:33N 37°57' E 023°35'0 0.0
2015-Jan-20 06:33N 37°57' E 023°35'2 1.6
2015-Jan-20 05:33N 37°56' E 023°35'1 0.7
2015-Jan-20 04:33N 37°55' E 023°35'7 7.1
2015-Jan-20 03:33N 37°49' E 023°40'8 7.5
2015-Jan-20 02:33N 37°42' E 023°44'1212.0
2015-Jan-20 01:32N 37°31' E 023°49'1513.7
2015-Jan-20 00:27N 37°18' E 023°58'6512.8
2015-Jan-19 19:25N 36°22' E 024°38'1315.0
2015-Jan-19 18:33N 36°15' E 024°52'1514.8
2015-Jan-19 17:33N 36°07' E 025°08'1514.6
2015-Jan-19 16:33N 35°59' E 025°23'1414.1
2015-Jan-19 15:32N 35°52' E 025°38'  
Track history (hours):
 
Tides and Currents Weather Stations Pressure Air Temp Water Temp Dewpoint Dewpoint Depression Visibility Wind Speed Wind Dir Waves Ship Positions

Ever Unicorn

Last reported at 2015-Jan-26 00:26 UTC. Time now 2015-Jan-27 05:52 UTC.
Position N 31°24' E 032°19'.

Length 285 m; draft 9.6 m.

Type: Ship (hazmat cat D). MMSI: 564995000.

Date/timePositionNaut miles runAvg speedWind from/ knotsBaromVisibWave heightAir tempDewpointWater temp
2015-Jan-26 00:26N 31°24' E 032°19'1 1.7
2015-Jan-25 23:33N 31°26' E 032°18'1211.8
2015-Jan-25 22:33N 31°35' E 032°09'1413.8
2015-Jan-25 21:33N 31°44' E 031°57'11611.1
2015-Jan-25 11:05N 31°11' E 029°48'2 0.3
2015-Jan-25 04:08N 31°09' E 029°48'0 0.0
2015-Jan-23 18:20N 31°09' E 029°48'0 0.0
2015-Jan-23 17:32N 31°09' E 029°48'0 0.0
2015-Jan-23 16:17N 31°09' E 029°48'0 0.0
2015-Jan-23 15:32N 31°09' E 029°48'0 0.0
2015-Jan-23 14:15N 31°09' E 029°48'0 0.0
2015-Jan-23 13:15N 31°09' E 029°48'5 1.0
2015-Jan-23 08:08N 31°13' E 029°45'0 0.0
2015-Jan-23 07:32N 31°13' E 029°45'0 0.2
2015-Jan-23 06:33N 31°13' E 029°45'2 2.2
2015-Jan-23 05:34N 31°12' E 029°48'10 4.0
2015-Jan-23 03:06N 31°20' E 029°41'1013.3
2015-Jan-23 02:22N 31°28' E 029°34'2513.7
2015-Jan-23 00:33N 31°49' E 029°19'1913.2
2015-Jan-22 23:06N 32°05' E 029°07'813.5
2015-Jan-22 22:33N 32°12' E 029°02'1413.9
2015-Jan-22 21:33N 32°24' E 028°54'1413.4
2015-Jan-22 20:31N 32°35' E 028°45'8113.4
2015-Jan-22 14:28N 33°44' E 027°53'1213.1
2015-Jan-22 13:33N 33°54' E 027°45'1313.1
2015-Jan-22 12:33N 34°05' E 027°37'1313.1
2015-Jan-22 11:33N 34°16' E 027°28'1313.4
2015-Jan-22 10:33N 34°27' E 027°19'1413.5
2015-Jan-22 09:33N 34°39' E 027°11'10 9.9
2015-Jan-22 08:32N 34°47' E 027°04'1313.3
2015-Jan-22 07:33N 34°58' E 026°56'1312.7
2015-Jan-22 06:33N 35°09' E 026°47'1312.6
2015-Jan-22 05:33N 35°20' E 026°39'1312.9
2015-Jan-22 04:33N 35°27' E 026°26'1413.1
2015-Jan-22 03:28N 35°35' E 026°11'1313.3
2015-Jan-22 02:30N 35°42' E 025°58'1313.4
2015-Jan-22 01:33N 35°49' E 025°45'1313.4
2015-Jan-22 00:33N 35°56' E 025°31'1413.6
2015-Jan-21 23:33N 36°03' E 025°16'913.3
2015-Jan-21 22:50N 36°08' E 025°06'112.8
2015-Jan-21 22:46N 36°08' E 025°05'313.3
2015-Jan-21 22:33N 36°10' E 025°02'1413.5
2015-Jan-21 21:33N 36°17' E 024°48'1413.4
2015-Jan-21 20:30N 36°24' E 024°33'6312.8
2015-Jan-21 15:33N 37°19' E 023°52'1313.5
2015-Jan-21 14:33N 37°31' E 023°46'1313.5
2015-Jan-21 13:34N 37°44' E 023°40'1312.8
2015-Jan-21 12:33N 37°56' E 023°36'1 1.3
2015-Jan-21 11:32N 37°57' E 023°35'0 0.0
2015-Jan-21 10:32N 37°57' E 023°35'0 0.0
2015-Jan-21 09:32N 37°57' E 023°35'0 0.0
2015-Jan-21 08:32N 37°57' E 023°35'0 0.0
2015-Jan-21 07:32N 37°57' E 023°35'0 0.0
2015-Jan-21 06:32N 37°57' E 023°35'0 0.0
2015-Jan-21 05:32N 37°57' E 023°35'0 0.0
2015-Jan-21 04:32N 37°57' E 023°35'0 0.0
2015-Jan-21 03:32N 37°57' E 023°35'0 0.0
2015-Jan-21 02:32N 37°57' E 023°35'0 0.0
2015-Jan-21 01:32N 37°57' E 023°35'0 0.0
2015-Jan-21 00:32N 37°57' E 023°35'0 0.0
2015-Jan-20 23:32N 37°57' E 023°35'0 0.0
2015-Jan-20 22:32N 37°57' E 023°35'0 0.0
2015-Jan-20 21:32N 37°57' E 023°35'0 0.0
2015-Jan-20 20:32N 37°57' E 023°35'0 0.0
2015-Jan-20 19:32N 37°57' E 023°35'0 0.0
2015-Jan-20 18:32N 37°57' E 023°35'0 0.0
2015-Jan-20 17:32N 37°57' E 023°35'0 0.0
2015-Jan-20 16:32N 37°57' E 023°35'0 0.0
2015-Jan-20 15:33N 37°57' E 023°35'0 0.0
2015-Jan-20 14:33N 37°57' E 023°35'0 0.0
2015-Jan-20 13:33N 37°57' E 023°35'0 0.0
2015-Jan-20 12:33N 37°57' E 023°35'0 0.0
2015-Jan-20 11:33N 37°57' E 023°35'0 0.0
2015-Jan-20 10:33N 37°57' E 023°35'0 0.0
2015-Jan-20 09:33N 37°57' E 023°35'0 0.0
2015-Jan-20 08:33N 37°57' E 023°35'0 0.0
2015-Jan-20 07:33N 37°57' E 023°35'0 0.0
2015-Jan-20 06:33N 37°57' E 023°35'2 1.6
2015-Jan-20 05:33N 37°56' E 023°35'1 0.7
2015-Jan-20 04:33N 37°55' E 023°35'7 7.1
2015-Jan-20 03:33N 37°49' E 023°40'8 7.5
2015-Jan-20 02:33N 37°42' E 023°44'1212.0
2015-Jan-20 01:32N 37°31' E 023°49'1513.7
2015-Jan-20 00:27N 37°18' E 023°58'6512.8
2015-Jan-19 19:25N 36°22' E 024°38'1315.0
2015-Jan-19 18:33N 36°15' E 024°52'1514.8
2015-Jan-19 17:33N 36°07' E 025°08'1514.6
2015-Jan-19 16:33N 35°59' E 025°23'1414.1
2015-Jan-19 15:32N 35°52' E 025°38'  

Dump ship's entire track history